Briefing drone pour Premery

Rechercher une autre localisation

Conditions de vol :


Nous sommes le : Dimanche 25 septembre 2022
Il est 23:05 UTC (01:05 LT)

Lever de soleil : 05:10 UTC (07:10 LT)
Coucher de soleil : 18:05 UTC (20:05 LT)

Météo

L'essentiel des conditions de vol

VIGILANCE MÉTÉO FRANCE - Nièvre (58)
Pas de vigilances particulieres
CARTE TEMSI
CARTES DES FRONTS
METAR de LFQG
LFQG 241800Z AUTO 00000KT 9999 -RA NSC 14/09 Q1012

Date d'émission: 24/09/2022
Heure d'émission: 18:00 UTC
Vent: Calme
Visibilité horizontale: > 10 km
Plafond : Pas de nuages significatifs (NSC)
Température: 14 °C
Point de rosée: 9 °C
Humidité: 72%
Pression (QNH): 1012 hPa
Conditions: Faible pluie
Prévision 24h pour Nevers (15 km)
Vent : 341° pour 2 KT (6 km/h)
Temperature Maxi: 13 °C
Temperature Min: 13 °C
Humidité : 72%
Condition : Légère pluie



Warning: count(): Parameter must be an array or an object that implements Countable in /homepages/6/d509196549/htdocs/droneoxygene/briefing.php on line 743
WEBCAM POUR PREMERY

Réglementation

Voler en sécurité

CARTES AERONAUTIQUE 1/500.000
CARTE AZBA (Reseau basse altitude)
CARTES VAC (LFQG)
SUP AIP




Chargement des AIP...
NOTAM (PREMERY + Terrain à proximité / FIR )




Chargement des NOTAMS...
CONTACT PREFECTURE 58


Avertissement : Les données mises à disposition sont indicatives. Oxygène Drone ne pourra être tenu responsable de dégâts causés aux biens et aux personnes.